Aeroporto :
LOGIN :

Iscrizione | Disclaimer

   EN    FR    IT 

 










Sommario :    VFR   VFR Marginale   IFR   IFR Intensivo   IFR Molto Intensivo
Visibilità : 
Base nubi : 
>= 8 km
>= 3000ft
5 / 8 km
1000 / 3000 ft
1500m / 5 km
500 / 1000 ft
800 / 1500m
200 / 500 ft
< 800m
< 200 ft
Simboli :   Temporali  Nebbia  Neve Forte  Precipitazioni Forti  Vento > 20 kt
SIGMETs :   Varie  Temporali  Ghiacco  Turbolenza  Onda orograficha  Ceneri Vulcaniche







- Altitudine del aeroporto : 156 ft
- Codice IATA : LCC


LIBN - Lecce Galatine (military)

ULTIMO METAR :
  • 250655Z 01015KT 9999 FEW020 28/22 Q1014 RMK FEW VIS MIN 9999 WIND THR14 01015KT WIND THR32 01015KT BLU

METARs OBSOLETI :
  • 250555Z 35014KT 9999 FEW015 27/22 Q1014 RMK FEW VIS MIN 9999 WIND THR14 36013KT WIND THR32 36017KT BLU
  • 250455Z 32007KT CAVOK 25/23 Q1014 RMK SKC VIS MIN 9999 WIND THR14 32007KT WIND THR32 32007KT BLU

TAF TAF LIBN
Valido dal 25 a 06 ore il 25 a 15 ore UTC


250500Z 2506/2515 32010KT CAVOK
BECMG 2507/2508 36015G25KT
Nessun NOTAM noto per questo aeroporto.



MetMap, La meteo Aeronautica in un colpo d'occhio ! - Copyright ORBIFLY Dicembre 2007 - Disclaimer

ORBIFLY MET'MAP TEAM :

Programmazione e sviluppo : Alexandra Zaïnal
Concezione e sviluppo : Baudouin d'Aumeries
Co-Programmazione e sviluppo : Marc-Olivier Méhu
Supporto tecnico e logistico : Manuel Goepfert
Aiuto per la traduzione : Arnaldo La Scala

Contatto : metmap@orbifly.com




FONTI E CREDITI :

   NOAA